Time;durP1;ratioP1;P1;durP2;ratioP2;P2;SDS_P1;SDS_P2;PMS_P1;PMS_P2;Temp;Humidity;BMP_temperature;BMP_pressure;BME280_temperature;BME280_humidity;BME280_pressure;Samples;Min_cycle;Max_cycle;Signal;HPM_P1;HPM_P2
2021/08/15 00:02:02;;;;;;;6.68;2.90;;;16.30;99.90;;;;;;5098338;28;20040;-67
2021/08/15 00:04:28;;;;;;;3.78;2.72;;;16.30;99.90;;;;;;5098330;28;20059;-67
2021/08/15 00:06:54;;;;;;;3.47;2.55;;;16.20;99.90;;;;;;5097840;28;20046;-68
2021/08/15 00:09:19;;;;;;;4.40;2.97;;;16.20;99.90;;;;;;5098182;28;20032;-67
2021/08/15 00:11:47;;;;;;;3.42;2.42;;;16.20;99.90;;;;;;5097970;28;20077;-67
2021/08/15 00:14:13;;;;;;;4.68;2.55;;;16.20;99.90;;;;;;5097927;28;20058;-67
2021/08/15 00:16:39;;;;;;;5.22;2.97;;;16.20;99.90;;;;;;5097991;28;20533;-67
2021/08/15 00:19:05;;;;;;;5.13;2.80;;;16.20;99.90;;;;;;5097939;28;20048;-67
2021/08/15 00:21:36;;;;;;;4.63;3.25;;;16.10;99.90;;;;;;5097552;28;20392;-67
2021/08/15 00:24:03;;;;;;;4.07;2.90;;;16.10;99.90;;;;;;5097911;28;20027;-67
2021/08/15 00:26:29;;;;;;;4.15;3.45;;;16.10;99.90;;;;;;5097080;28;20092;-67
2021/08/15 00:28:55;;;;;;;3.90;2.97;;;16.10;99.90;;;;;;5096634;28;20055;-67
2021/08/15 00:31:21;;;;;;;3.13;2.58;;;16.10;99.90;;;;;;5097264;28;20031;-68
2021/08/15 00:33:47;;;;;;;9.40;3.20;;;16.00;99.90;;;;;;5096196;28;20058;-67
2021/08/15 00:36:13;;;;;;;3.88;2.58;;;16.00;99.90;;;;;;5097114;28;20121;-67
2021/08/15 00:38:39;;;;;;;4.03;2.10;;;15.90;99.90;;;;;;5097463;28;20031;-67
2021/08/15 00:41:06;;;;;;;3.75;2.60;;;15.80;99.90;;;;;;5096006;28;20024;-68
2021/08/15 00:43:32;;;;;;;3.72;2.38;;;15.80;99.90;;;;;;5097624;28;20024;-67
2021/08/15 00:45:58;;;;;;;4.32;2.53;;;15.80;99.90;;;;;;5097265;28;20042;-68
2021/08/15 00:48:24;;;;;;;5.30;2.60;;;15.70;99.90;;;;;;5096161;28;20035;-68
2021/08/15 00:50:50;;;;;;;3.45;2.50;;;15.70;99.90;;;;;;5097053;28;20095;-67
2021/08/15 00:53:16;;;;;;;3.10;2.75;;;15.60;99.90;;;;;;5097164;28;20028;-67
2021/08/15 00:55:42;;;;;;;4.93;2.78;;;15.60;99.90;;;;;;5097034;28;20024;-67
2021/08/15 00:58:08;;;;;;;3.50;2.22;;;15.50;99.90;;;;;;5097102;28;21260;-67
2021/08/15 01:00:37;;;;;;;3.95;2.70;;;15.50;99.90;;;;;;5097116;28;20022;-67
2021/08/15 01:03:03;;;;;;;2.30;2.10;;;15.50;99.90;;;;;;5095787;28;20114;-67
2021/08/15 01:05:29;;;;;;;3.38;2.10;;;15.40;99.90;;;;;;5096690;28;20037;-67
2021/08/15 01:07:57;;;;;;;3.83;3.05;;;15.30;99.90;;;;;;5095680;28;20036;-67
2021/08/15 01:10:22;;;;;;;7.18;2.70;;;15.30;99.90;;;;;;5096895;28;20028;-68
2021/08/15 01:12:49;;;;;;;4.38;3.25;;;15.20;99.90;;;;;;5096989;28;20028;-67
2021/08/15 01:15:16;;;;;;;2.95;2.30;;;15.20;99.90;;;;;;5095611;28;20043;-67
2021/08/15 01:17:42;;;;;;;5.18;2.00;;;15.20;99.90;;;;;;5096941;28;20446;-68
2021/08/15 01:20:10;;;;;;;2.47;1.98;;;15.10;99.90;;;;;;5096720;28;20017;-67
2021/08/15 01:22:43;;;;;;;3.25;2.65;;;15.00;99.90;;;;;;5096729;28;20024;-67
2021/08/15 01:25:11;;;;;;;6.15;3.13;;;14.90;99.90;;;;;;5096906;28;20091;-67
2021/08/15 01:27:39;;;;;;;3.17;2.60;;;14.90;99.90;;;;;;5096832;28;20031;-67
2021/08/15 01:30:09;;;;;;;5.03;2.30;;;14.90;99.90;;;;;;5096967;28;20020;-67
2021/08/15 01:32:36;;;;;;;3.00;2.35;;;14.90;99.90;;;;;;5096631;28;20031;-67
2021/08/15 01:35:03;;;;;;;3.80;3.13;;;14.90;99.90;;;;;;5096394;28;20101;-67
2021/08/15 01:37:29;;;;;;;3.70;2.83;;;14.90;99.90;;;;;;5099963;28;20491;-67
2021/08/15 01:40:01;;;;;;;4.55;2.97;;;14.80;99.90;;;;;;5100972;28;20046;-67
2021/08/15 01:42:27;;;;;;;5.85;3.05;;;14.80;99.90;;;;;;5100848;28;20021;-67
2021/08/15 01:44:52;;;;;;;4.03;3.15;;;14.70;99.90;;;;;;5100899;28;20032;-67
2021/08/15 01:47:18;;;;;;;7.07;3.25;;;14.70;99.90;;;;;;5100666;28;20065;-67
2021/08/15 01:49:44;;;;;;;8.48;3.67;;;14.70;99.90;;;;;;5100751;28;20165;-67
2021/08/15 01:52:10;;;;;;;4.63;2.83;;;14.70;99.90;;;;;;5100366;28;20081;-67
2021/08/15 01:54:36;;;;;;;5.63;3.30;;;14.50;99.90;;;;;;5100650;28;20024;-67
2021/08/15 01:57:02;;;;;;;4.00;2.35;;;14.60;99.90;;;;;;5100710;28;20503;-67
2021/08/15 01:59:28;;;;;;;5.50;2.80;;;14.50;99.90;;;;;;5100578;28;20381;-67
2021/08/15 02:01:55;;;;;;;5.53;3.10;;;14.50;99.90;;;;;;5100370;28;20031;-67
2021/08/15 02:04:23;;;;;;;6.07;3.72;;;14.40;99.90;;;;;;5099246;28;20030;-68
2021/08/15 02:06:49;;;;;;;8.88;3.92;;;14.40;99.90;;;;;;5100124;28;20020;-68
2021/08/15 02:09:15;;;;;;;3.63;2.90;;;14.40;99.90;;;;;;5099024;28;20016;-68
2021/08/15 02:11:41;;;;;;;5.43;3.20;;;14.40;99.90;;;;;;5100303;28;20488;-67
2021/08/15 02:14:07;;;;;;;3.55;2.80;;;14.30;99.90;;;;;;5100387;28;20032;-67
2021/08/15 02:16:33;;;;;;;5.55;3.38;;;;;;;;;;5100322;28;20027;-67
2021/08/15 02:18:58;;;;;;;4.43;2.75;;;14.30;99.90;;;;;;5100376;28;20077;-68
2021/08/15 02:21:24;;;;;;;5.13;3.20;;;13.90;99.90;;;;;;5099745;28;20024;-67
2021/08/15 02:23:50;;;;;;;4.13;3.08;;;14.10;99.90;;;;;;5100275;28;20441;-68
2021/08/15 02:26:16;;;;;;;4.10;2.60;;;14.10;99.90;;;;;;5100040;28;20027;-67
2021/08/15 02:28:42;;;;;;;5.05;2.78;;;14.10;99.90;;;;;;5100121;28;20031;-67
2021/08/15 02:31:07;;;;;;;4.28;2.70;;;14.00;99.90;;;;;;5098465;28;20028;-67
2021/08/15 02:33:33;;;;;;;3.63;2.30;;;13.90;99.90;;;;;;5098548;28;20024;-67
2021/08/15 02:35:59;;;;;;;4.32;2.47;;;14.00;99.90;;;;;;5099470;28;20052;-67
2021/08/15 02:38:25;;;;;;;3.17;2.70;;;13.80;99.90;;;;;;5098483;28;20105;-67
2021/08/15 02:40:51;;;;;;;4.95;2.63;;;13.80;99.90;;;;;;5098433;28;20046;-67
2021/08/15 02:43:18;;;;;;;4.05;2.83;;;13.70;99.90;;;;;;5099698;28;20023;-67
2021/08/15 02:45:43;;;;;;;3.97;2.63;;;13.70;99.90;;;;;;5098190;28;20028;-67
2021/08/15 02:48:09;;;;;;;5.95;3.05;;;13.70;99.90;;;;;;5099125;28;20016;-67
2021/08/15 02:50:35;;;;;;;5.65;2.67;;;13.60;99.90;;;;;;5099307;28;20021;-67
2021/08/15 02:53:01;;;;;;;2.90;2.47;;;13.70;99.90;;;;;;5099761;28;20496;-67
2021/08/15 02:55:27;;;;;;;3.63;3.30;;;13.60;99.90;;;;;;5099298;28;20036;-67
2021/08/15 02:57:53;;;;;;;2.97;2.53;;;13.50;99.90;;;;;;5099595;28;20081;-67
2021/08/15 03:00:18;;;;;;;3.97;2.47;;;13.50;99.90;;;;;;5099404;28;20111;-67
2021/08/15 03:02:44;;;;;;;5.65;3.72;;;13.50;99.90;;;;;;5099471;28;20020;-67
2021/08/15 03:05:10;;;;;;;7.25;3.50;;;13.40;99.90;;;;;;5099097;28;20036;-68
2021/08/15 03:07:36;;;;;;;6.63;3.65;;;13.40;99.90;;;;;;5099295;28;20384;-68
2021/08/15 03:10:04;;;;;;;6.10;4.18;;;13.40;99.90;;;;;;5099303;28;20388;-67
2021/08/15 03:12:30;;;;;;;6.68;3.63;;;13.40;99.90;;;;;;5099353;28;20027;-67
2021/08/15 03:14:56;;;;;;;5.32;2.80;;;13.50;99.90;;;;;;5099064;28;20028;-67
2021/08/15 03:17:22;;;;;;;5.85;2.88;;;13.40;99.90;;;;;;5099156;28;20373;-67
2021/08/15 03:19:47;;;;;;;3.50;2.72;;;13.40;99.90;;;;;;5098955;28;20035;-67
2021/08/15 03:22:13;;;;;;;7.15;3.33;;;13.30;99.90;;;;;;5098729;28;20035;-67
2021/08/15 03:24:39;;;;;;;5.18;3.35;;;13.30;99.90;;;;;;5098785;28;20024;-67
2021/08/15 03:27:05;;;;;;;4.68;3.22;;;13.30;99.90;;;;;;5098943;28;20487;-67
2021/08/15 03:29:31;;;;;;;6.25;3.17;;;13.30;99.90;;;;;;5098912;28;20100;-66
2021/08/15 03:31:57;;;;;;;6.85;4.10;;;13.20;99.90;;;;;;5098695;28;20024;-67
2021/08/15 03:34:23;;;;;;;4.65;2.83;;;13.20;99.90;;;;;;5098699;28;20024;-67
2021/08/15 03:36:50;;;;;;;6.07;3.35;;;13.10;99.90;;;;;;5098355;28;20043;-67
2021/08/15 03:39:16;;;;;;;5.10;3.03;;;13.10;99.90;;;;;;5098593;28;20031;-66
2021/08/15 03:41:43;;;;;;;4.90;3.20;;;13.00;99.90;;;;;;5098709;28;20024;-67
2021/08/15 03:44:09;;;;;;;6.05;2.83;;;13.00;99.90;;;;;;5098468;28;20024;-67
2021/08/15 03:46:35;;;;;;;3.58;2.90;;;13.00;99.90;;;;;;5098610;28;20031;-66
2021/08/15 03:49:01;;;;;;;4.18;3.25;;;13.00;99.90;;;;;;5097298;28;20020;-68
2021/08/15 03:51:27;;;;;;;4.53;3.08;;;13.00;99.90;;;;;;5098237;28;20153;-67
2021/08/15 03:53:53;;;;;;;8.32;3.65;;;13.00;99.90;;;;;;5098206;28;20156;-67
2021/08/15 03:56:19;;;;;;;4.55;3.10;;;12.80;99.90;;;;;;5098383;28;20088;-68
2021/08/15 03:58:44;;;;;;;6.60;3.63;;;13.00;99.90;;;;;;5098291;28;20450;-67
2021/08/15 04:01:10;;;;;;;3.78;2.65;;;12.90;99.90;;;;;;5097234;28;20035;-67
2021/08/15 04:03:36;;;;;;;4.70;2.88;;;12.90;99.90;;;;;;5098145;28;20016;-67
2021/08/15 04:06:07;;;;;;;8.95;2.65;;;12.90;99.90;;;;;;5098291;28;20028;-67
2021/08/15 04:08:34;;;;;;;3.22;2.53;;;12.90;99.90;;;;;;5098129;28;20047;-67
2021/08/15 04:11:00;;;;;;;5.55;3.08;;;12.90;99.90;;;;;;5098358;28;20057;-67
2021/08/15 04:13:26;;;;;;;3.83;2.85;;;12.70;99.90;;;;;;5097907;28;20008;-67
2021/08/15 04:15:51;;;;;;;5.63;2.55;;;12.70;99.90;;;;;;5098123;28;20545;-67
2021/08/15 04:18:17;;;;;;;4.15;2.60;;;12.70;99.90;;;;;;5097841;28;20027;-67
2021/08/15 04:20:43;;;;;;;4.65;2.47;;;12.60;99.90;;;;;;5097717;28;20033;-67
2021/08/15 04:23:09;;;;;;;7.47;3.33;;;12.60;99.90;;;;;;5097565;28;20020;-67
2021/08/15 04:25:35;;;;;;;6.60;2.80;;;12.70;99.90;;;;;;5096682;28;20028;-67
2021/08/15 04:28:02;;;;;;;5.32;3.15;;;12.60;99.90;;;;;;5097806;28;20533;-67
2021/08/15 04:30:27;;;;;;;4.32;2.55;;;12.60;99.90;;;;;;5096427;28;20034;-67
2021/08/15 04:32:53;;;;;;;3.45;2.40;;;12.60;99.90;;;;;;5097404;28;20123;-67
2021/08/15 04:35:19;;;;;;;8.20;3.00;;;12.60;99.90;;;;;;5097251;28;20052;-67
2021/08/15 04:37:45;;;;;;;5.80;2.63;;;12.60;99.90;;;;;;5097502;28;20403;-67
2021/08/15 04:40:12;;;;;;;4.45;3.05;;;12.60;99.90;;;;;;5096161;28;20066;-67
2021/08/15 04:42:37;;;;;;;3.95;2.55;;;12.50;99.90;;;;;;5097432;28;20036;-67
2021/08/15 04:45:04;;;;;;;3.83;2.22;;;12.50;99.90;;;;;;5097720;28;20024;-67
2021/08/15 04:47:29;;;;;;;2.53;2.33;;;12.50;99.90;;;;;;5097493;28;20460;-67
2021/08/15 04:49:55;;;;;;;4.88;2.45;;;12.50;99.90;;;;;;5097169;28;20032;-67
2021/08/15 04:52:22;;;;;;;9.57;3.13;;;12.40;99.90;;;;;;5097283;28;20111;-67
2021/08/15 04:54:48;;;;;;;4.15;2.75;;;12.50;99.90;;;;;;5097165;28;20091;-67
2021/08/15 04:57:13;;;;;;;2.85;2.40;;;12.50;99.90;;;;;;5097200;28;20511;-66
2021/08/15 04:59:39;;;;;;;5.38;2.22;;;12.60;99.90;;;;;;5097167;28;20016;-68
2021/08/15 05:02:05;;;;;;;4.72;2.72;;;12.40;99.90;;;;;;5097053;28;20055;-67
2021/08/15 05:04:31;;;;;;;5.90;2.17;;;12.40;99.90;;;;;;5097274;28;20021;-68
2021/08/15 05:06:57;;;;;;;6.22;2.60;;;12.30;99.90;;;;;;5096852;28;20080;-66
2021/08/15 05:09:22;;;;;;;3.63;2.33;;;12.30;99.90;;;;;;5097182;28;20023;-67
2021/08/15 05:11:48;;;;;;;2.85;2.65;;;12.30;99.90;;;;;;5095253;28;20495;-67
2021/08/15 05:14:15;;;;;;;6.00;2.45;;;12.30;99.90;;;;;;5097159;28;20075;-67
2021/08/15 05:16:41;;;;;;;3.20;2.20;;;12.30;99.90;;;;;;5096881;28;20024;-67
2021/08/15 05:19:06;;;;;;;2.58;2.35;;;12.30;99.90;;;;;;5097057;28;20022;-67
2021/08/15 05:21:32;;;;;;;5.20;2.13;;;12.20;99.90;;;;;;5096620;28;20020;-67
2021/08/15 05:23:58;;;;;;;2.30;2.00;;;12.30;99.90;;;;;;5096895;28;20016;-67
2021/08/15 05:26:24;;;;;;;3.55;2.33;;;12.20;99.90;;;;;;5096812;28;20424;-67
2021/08/15 05:28:51;;;;;;;3.30;2.30;;;12.30;99.90;;;;;;5096986;28;20024;-67
2021/08/15 05:31:16;;;;;;;4.10;2.53;;;12.30;99.90;;;;;;5096573;28;20022;-67
2021/08/15 05:33:42;;;;;;;3.42;2.17;;;12.30;99.90;;;;;;5096882;28;20492;-67
2021/08/15 05:36:08;;;;;;;3.63;2.20;;;12.30;99.90;;;;;;5096368;28;20063;-66
2021/08/15 05:38:34;;;;;;;12.77;5.90;;;12.40;99.90;;;;;;5096724;28;20482;-67
2021/08/15 05:41:00;;;;;;;10.70;5.18;;;12.50;99.90;;;;;;5096812;28;20020;-67
2021/08/15 05:43:25;;;;;;;8.57;4.57;;;12.70;99.90;;;;;;5095280;28;20051;-67
2021/08/15 05:45:51;;;;;;;8.70;5.32;;;12.70;99.90;;;;;;5096514;28;20391;-67
2021/08/15 05:48:18;;;;;;;8.10;5.50;;;12.90;99.90;;;;;;5096780;28;20055;-67
2021/08/15 05:50:44;;;;;;;8.35;5.68;;;13.00;99.90;;;;;;5096238;28;20400;-67
2021/08/15 05:53:10;;;;;;;6.22;4.72;;;13.20;99.90;;;;;;5096614;28;20028;-67
2021/08/15 05:55:36;;;;;;;9.55;5.72;;;13.20;99.90;;;;;;5096631;28;20028;-66
2021/08/15 05:58:02;;;;;;;8.15;6.07;;;13.40;99.90;;;;;;5096826;28;20415;-67
2021/08/15 06:00:28;;;;;;;10.57;5.75;;;13.40;99.90;;;;;;5096485;28;20099;-66
2021/08/15 06:02:54;;;;;;;10.63;4.85;;;13.50;99.90;;;;;;5095155;28;20039;-67
2021/08/15 06:05:20;;;;;;;6.63;4.03;;;13.60;99.90;;;;;;5096102;28;20484;-68
2021/08/15 06:07:46;;;;;;;6.50;4.85;;;13.70;99.90;;;;;;5096610;28;20103;-67
2021/08/15 06:10:12;;;;;;;6.05;4.28;;;13.70;99.90;;;;;;5096214;28;20138;-67
2021/08/15 06:12:39;;;;;;;5.85;4.63;;;13.80;99.90;;;;;;5096521;28;20050;-67
2021/08/15 06:15:08;;;;;;;5.72;4.15;;;13.90;99.90;;;;;;5096376;28;20024;-67
2021/08/15 06:17:33;;;;;;;9.35;4.60;;;14.00;99.90;;;;;;5096505;28;20483;-67
2021/08/15 06:19:59;;;;;;;5.53;3.85;;;14.10;99.90;;;;;;5096223;28;20093;-67
2021/08/15 06:22:26;;;;;;;7.70;4.75;;;14.10;99.90;;;;;;5096370;28;20020;-66
2021/08/15 06:24:52;;;;;;;5.93;4.60;;;14.30;99.90;;;;;;5098302;28;20024;-67
2021/08/15 06:27:18;;;;;;;11.02;5.65;;;14.40;99.90;;;;;;5098757;28;20020;-67
2021/08/15 06:29:44;;;;;;;7.65;5.60;;;14.50;99.90;;;;;;5100044;28;20055;-67
2021/08/15 06:32:10;;;;;;;7.00;5.63;;;14.60;99.90;;;;;;5098580;28;20031;-67
2021/08/15 06:34:35;;;;;;;6.45;5.28;;;14.70;99.90;;;;;;5099853;28;20027;-66
2021/08/15 06:37:01;;;;;;;7.68;5.82;;;14.80;99.90;;;;;;5099601;28;20523;-67
2021/08/15 06:39:27;;;;;;;7.68;6.47;;;15.00;99.90;;;;;;5099739;28;20016;-67
2021/08/15 06:41:53;;;;;;;10.13;6.53;;;15.10;99.90;;;;;;5099903;28;20845;-66
2021/08/15 06:44:19;;;;;;;8.60;5.63;;;15.30;99.90;;;;;;5099630;28;20098;-67
2021/08/15 06:46:45;;;;;;;8.50;5.53;;;15.40;99.90;;;;;;5099739;28;20392;-66
2021/08/15 06:49:11;;;;;;;5.90;5.03;;;15.40;99.90;;;;;;5099762;28;20028;-68
2021/08/15 06:51:37;;;;;;;8.38;5.50;;;15.50;99.90;;;;;;5099379;28;20070;-67
2021/08/15 06:54:02;;;;;;;6.32;5.65;;;15.70;99.90;;;;;;5095318;28;20028;-67
2021/08/15 06:56:28;;;;;;;5.97;5.28;;;15.90;99.90;;;;;;5097288;28;20479;-68
2021/08/15 06:58:54;;;;;;;8.02;6.00;;;16.00;99.90;;;;;;5102162;28;20031;-68
2021/08/15 07:01:20;;;;;;;6.20;5.60;;;16.10;99.90;;;;;;5097694;28;20087;-68
2021/08/15 07:03:46;;;;;;;6.05;5.30;;;16.20;99.90;;;;;;5099059;28;20028;-68
2021/08/15 07:06:12;;;;;;;8.88;5.10;;;16.30;99.90;;;;;;5097701;28;20119;-68
2021/08/15 07:08:37;;;;;;;5.57;4.57;;;16.30;99.90;;;;;;5098623;28;20095;-67
2021/08/15 07:11:04;;;;;;;5.88;4.68;;;16.60;99.90;;;;;;5108328;28;20023;-68
2021/08/15 07:13:30;;;;;;;5.32;4.82;;;16.90;99.90;;;;;;5101106;28;20020;-68
2021/08/15 07:15:56;;;;;;;6.38;5.00;;;16.90;99.90;;;;;;5098658;28;20031;-68
2021/08/15 07:18:22;;;;;;;4.65;4.00;;;17.00;99.90;;;;;;5099052;28;20460;-68
2021/08/15 07:20:49;;;;;;;7.03;4.90;;;17.10;99.90;;;;;;5099002;28;20024;-69
2021/08/15 07:23:15;;;;;;;5.28;4.70;;;17.20;99.90;;;;;;5098168;28;20497;-62
2021/08/15 07:25:41;;;;;;;4.93;4.47;;;17.20;99.90;;;;;;5099010;28;20052;-62
2021/08/15 07:28:07;;;;;;;8.10;4.88;;;17.30;99.90;;;;;;5098852;28;20094;-62
2021/08/15 07:30:34;;;;;;;4.75;4.00;;;17.40;99.90;;;;;;5098727;28;20048;-62
2021/08/15 07:33:02;;;;;;;5.60;4.22;;;17.90;99.90;;;;;;5098854;28;20870;-62
2021/08/15 07:35:30;;;;;;;5.25;4.38;;;18.20;99.90;;;;;;5098659;28;20424;-62
2021/08/15 07:37:58;;;;;;;4.93;3.80;;;18.40;99.90;;;;;;5098626;28;20020;-63
2021/08/15 07:40:24;;;;;;;6.32;4.35;;;18.60;99.90;;;;;;5099044;28;20462;-62
2021/08/15 07:42:51;;;;;;;4.63;4.20;;;18.80;99.90;;;;;;5099097;28;20020;-62
2021/08/15 07:45:26;;;;;;;5.20;4.18;;;19.10;99.90;;;;;;5098505;28;20039;-63
2021/08/15 07:47:53;;;;;;;3.70;3.40;;;19.10;99.90;;;;;;5102458;28;20044;-62
2021/08/15 07:50:19;;;;;;;7.10;3.88;;;19.30;99.90;;;;;;5098636;28;20051;-62
2021/08/15 07:52:45;;;;;;;4.32;3.08;;;19.40;99.90;;;;;;5098489;28;20052;-63
2021/08/15 07:55:12;;;;;;;4.35;3.40;;;19.50;99.90;;;;;;5098759;28;20380;-62
2021/08/15 07:57:38;;;;;;;3.28;2.97;;;19.50;99.90;;;;;;5098888;28;20027;-62
2021/08/15 08:00:08;;;;;;;6.38;3.17;;;19.50;99.90;;;;;;5098132;28;20032;-62
2021/08/15 08:02:34;;;;;;;4.22;2.60;;;19.50;99.90;;;;;;5098801;28;20028;-62
2021/08/15 08:05:00;;;;;;;3.63;2.53;;;19.60;99.90;;;;;;5098716;28;20035;-62
2021/08/15 08:07:26;;;;;;;2.17;1.98;;;19.90;99.90;;;;;;5098447;28;20024;-63
2021/08/15 08:09:53;;;;;;;3.20;1.75;;;20.30;99.90;;;;;;5098656;28;20077;-62
2021/08/15 08:12:20;;;;;;;2.90;1.90;;;20.30;99.90;;;;;;5097707;28;20016;-62
2021/08/15 08:14:47;;;;;;;2.50;1.58;;;20.90;99.90;;;;;;5096420;28;20166;-63
2021/08/15 08:17:13;;;;;;;1.38;1.27;;;;;;;;;;5097885;28;20054;-63
2021/08/15 08:19:40;;;;;;;2.95;1.35;;;21.60;99.90;;;;;;5097508;28;20035;-63
2021/08/15 08:22:06;;;;;;;5.50;1.50;;;21.70;99.90;;;;;;5097775;28;20024;-68
2021/08/15 08:24:33;;;;;;;3.33;1.33;;;21.80;99.90;;;;;;5096430;28;20042;-69
2021/08/15 08:26:59;;;;;;;2.28;1.10;;;21.60;99.90;;;;;;5098022;28;20468;-68
2021/08/15 08:29:25;;;;;;;1.10;0.70;;;21.60;99.90;;;;;;5097622;28;20080;-69
2021/08/15 08:31:50;;;;;;;1.92;0.70;;;21.70;99.90;;;;;;5097630;28;20099;-68
2021/08/15 08:34:16;;;;;;;2.05;1.00;;;21.80;99.90;;;;;;5097627;28;20039;-69
2021/08/15 08:36:42;;;;;;;1.38;0.80;;;;;;;;;;5097420;28;20078;-68
2021/08/15 08:39:08;;;;;;;1.05;0.68;;;;;;;;;;5097421;28;20052;-69
2021/08/15 08:41:37;;;;;;;0.70;0.70;;;;;;;;;;5097695;28;20488;-68
2021/08/15 08:44:04;;;;;;;0.93;0.70;;;;;;;;;;5097701;28;20032;-69
2021/08/15 08:46:31;;;;;;;0.43;0.43;;;;;;;;;;5097168;28;20024;-68
2021/08/15 08:48:57;;;;;;;0.82;0.80;;;;;;;;;;5097363;28;20063;-68
2021/08/15 08:51:23;;;;;;;0.82;0.82;;;;;;;;;;5097267;28;20077;-68
2021/08/15 08:53:50;;;;;;;1.75;1.33;;;;;;;;;;5097060;28;20388;-68
2021/08/15 08:56:17;;;;;;;1.90;1.08;;;;;;;;;;5097354;28;20523;-68
2021/08/15 08:58:44;;;;;;;1.63;0.98;;;;;;;;;;5097216;28;20036;-69
2021/08/15 09:01:14;;;;;;;1.20;1.00;;;;;;;;;;5095878;28;20461;-68
2021/08/15 09:03:40;;;;;;;2.58;1.20;;;;;;;;;;5097181;28;20024;-68
2021/08/15 09:06:18;;;;;;;1.50;1.35;;;;;;;;;;5096859;28;20025;-68
2021/08/15 09:08:44;;;;;;;1.10;1.00;;;;;;;;;;5096833;28;20055;-68
2021/08/15 09:11:12;;;;;;;2.25;1.83;;;;;;;;;;5097110;28;20020;-68
2021/08/15 09:13:38;;;;;;;2.47;1.42;;;;;;;;;;5095630;28;20504;-67
2021/08/15 09:16:04;;;;;;;1.48;0.90;;;;;;;;;;5090626;28;20145;-62
2021/08/15 09:18:31;;;;;;;1.80;0.95;;;;;;;;;;5098048;28;20113;-62
2021/08/15 09:20:57;;;;;;;2.22;0.80;;;;;;;;;;5086695;28;20407;-62
2021/08/15 09:23:31;;;;;;;4.28;0.77;;;;;;;;;;5108776;28;20047;-62
2021/08/15 09:26:09;;;;;;;1.52;0.70;;;;;;;;;;5096525;28;20028;-62
2021/08/15 09:28:36;;;;;;;1.35;1.00;;;;;;;;;;5096870;28;20024;-62
2021/08/15 09:31:23;;;;;;;0.65;0.60;;;;;;;;;;5096380;28;20020;-62
2021/08/15 09:33:50;;;;;;;0.65;0.65;;;;;;;;;;5101702;28;20027;-62
2021/08/15 09:36:30;;;;;;;0.50;0.50;;;;;;;;;;5097006;28;20415;-63
2021/08/15 09:38:57;;;;;;;0.40;0.40;;;;;;;;;;5094896;28;20028;-62
2021/08/15 09:41:28;;;;;;;1.65;0.50;;;;;;;;;;5097159;28;20093;-61
2021/08/15 09:44:13;;;;;;;0.60;0.55;;;;;;;;;;5097392;28;20032;-62
2021/08/15 09:46:57;;;;;;;0.40;0.40;;;;;;;;;;5096681;28;20036;-62
2021/08/15 09:49:24;;;;;;;0.50;0.45;;;;;;;;;;5097222;28;20039;-61
2021/08/15 09:51:50;;;;;;;1.58;0.80;;;;;;;;;;5096603;28;20438;-62
2021/08/15 09:54:19;;;;;;;2.65;0.73;;;;;;;;;;5095901;28;20103;-62
2021/08/15 09:56:45;;;;;;;0.70;0.70;;;;;;;;;;5096572;28;20435;-62
2021/08/15 09:59:21;;;;;;;0.50;0.50;;;22.90;99.90;;;;;;5099287;28;20024;-62
2021/08/15 10:01:51;;;;;;;1.35;0.75;;;;;;;;;;5100304;28;20028;-63
2021/08/15 10:04:18;;;;;;;0.80;0.63;;;23.30;99.90;;;;;;5100620;28;20032;-62
2021/08/15 10:06:52;;;;;;;2.45;0.90;;;23.30;99.90;;;;;;5099912;28;20016;-62
2021/08/15 10:09:23;;;;;;;0.80;0.65;;;23.50;99.90;;;;;;5100144;28;20087;-62
2021/08/15 10:11:49;;;;;;;1.73;0.65;;;23.80;99.90;;;;;;5113397;28;20344;-62
2021/08/15 10:14:16;;;;;;;2.90;0.82;;;23.90;99.90;;;;;;5099890;28;20024;-63
2021/08/15 10:17:11;;;;;;;0.80;0.63;;;24.10;99.90;;;;;;5100041;28;20020;-62
2021/08/15 10:20:00;;;;;;;3.03;0.80;;;24.30;99.90;;;;;;5098883;28;20016;-62
2021/08/15 10:22:30;;;;;;;2.28;0.90;;;24.60;99.90;;;;;;5099916;28;20434;-63
2021/08/15 10:25:03;;;;;;;0.82;0.52;;;25.00;99.90;;;;;;5100322;28;20078;-63
2021/08/15 10:27:42;;;;;;;0.60;0.60;;;25.20;99.90;;;;;;5100501;28;20484;-62
2021/08/15 10:30:15;;;;;;;0.65;0.65;;;25.20;99.90;;;;;;5100033;28;20028;-61
2021/08/15 10:33:04;;;;;;;0.80;0.52;;;25.10;99.90;;;;;;5100182;28;20036;-62
2021/08/15 10:35:38;;;;;;;3.55;0.70;;;24.90;99.90;;;;;;5099960;28;20119;-62
2021/08/15 10:38:16;;;;;;;1.52;0.57;;;24.80;99.90;;;;;;5099827;28;20066;-62
2021/08/15 10:40:45;;;;;;;0.50;0.40;;;26.30;99.90;;;;;;5100084;28;20555;-62
2021/08/15 10:43:20;;;;;;;0.40;0.40;;;26.50;99.90;;;;;;5100312;28;20020;-63
2021/08/15 10:46:15;;;;;;;0.38;0.32;;;26.50;99.90;;;;;;5099613;28;20024;-62
2021/08/15 10:49:02;;;;;;;0.20;0.20;;;26.00;99.90;;;;;;5099899;28;20031;-62
2021/08/15 10:51:38;;;;;;;0.75;0.40;;;26.00;99.90;;;;;;5099223;28;20027;-66
2021/08/15 10:54:04;;;;;;;1.15;0.50;;;25.80;99.90;;;;;;5098127;28;20035;-65
2021/08/15 10:56:53;;;;;;;0.65;0.40;;;26.10;99.90;;;;;;5098610;28;20031;-65
2021/08/15 10:59:35;;;;;;;0.40;0.40;;;26.50;99.90;;;;;;5099673;28;20085;-65
2021/08/15 11:02:30;;;;;;;0.40;0.40;;;26.40;99.90;;;;;;5099522;28;20023;-65
2021/08/15 11:05:02;;;;;;;1.17;0.70;;;25.70;99.90;;;;;;5099076;28;20115;-64
2021/08/15 11:07:35;;;;;;;2.05;0.50;;;25.70;99.90;;;;;;5099515;28;20028;-65
2021/08/15 11:10:01;;;;;;;0.32;0.32;;;25.50;99.90;;;;;;5098920;28;20028;-65
2021/08/15 11:12:26;;;;;;;1.15;0.88;;;25.20;99.90;;;;;;5097965;28;20043;-64
2021/08/15 11:15:04;;;;;;;0.80;0.50;;;24.90;99.90;;;;;;5099266;28;20112;-65
2021/08/15 11:17:32;;;;;;;0.70;0.60;;;24.60;99.90;;;;;;5099410;28;20105;-65
2021/08/15 11:20:37;;;;;;;1.48;0.32;;;24.70;99.90;;;;;;5099202;28;20060;-65
2021/08/15 11:23:26;;;;;;;0.57;0.30;;;25.10;99.90;;;;;;5099267;28;20377;-64
2021/08/15 11:25:52;;;;;;;0.20;0.20;;;25.60;99.90;;;;;;5092485;28;20115;-64
2021/08/15 11:28:21;;;;;;;0.40;0.20;;;25.70;99.90;;;;;;5085708;28;20499;-64
2021/08/15 11:30:55;;;;;;;0.35;0.20;;;25.80;99.90;;;;;;5098929;28;20093;-65
2021/08/15 11:33:22;;;;;;;5.07;0.30;;;26.20;99.90;;;;;;5098805;28;20028;-65
2021/08/15 11:35:48;;;;;;;2.20;0.38;;;26.60;99.90;;;;;;5098440;28;20420;-65
2021/08/15 11:38:16;;;;;;;1.08;0.28;;;26.60;99.90;;;;;;5098880;28;20071;-65
2021/08/15 11:40:57;;;;;;;0.47;0.32;;;26.60;99.90;;;;;;5098916;28;20024;-65
2021/08/15 11:43:25;;;;;;;0.65;0.30;;;26.40;99.90;;;;;;5098752;28;20028;-65
2021/08/15 11:45:55;;;;;;;0.50;0.30;;;26.20;99.90;;;;;;5098551;28;20024;-64
2021/08/15 11:48:29;;;;;;;0.45;0.25;;;25.90;99.90;;;;;;5098764;28;20018;-65
2021/08/15 11:51:00;;;;;;;1.00;0.30;;;25.90;99.90;;;;;;5098502;28;20027;-64
2021/08/15 11:53:32;;;;;;;2.88;0.50;;;26.30;99.90;;;;;;5098262;28;20073;-64
2021/08/15 11:56:12;;;;;;;1.88;0.38;;;26.10;99.90;;;;;;5098613;28;20047;-65
2021/08/15 11:58:49;;;;;;;1.30;0.35;;;25.50;99.90;;;;;;5098377;28;20072;-64
2021/08/15 12:01:17;;;;;;;0.45;0.30;;;25.40;99.90;;;;;;5098290;28;20024;-64
2021/08/15 12:03:56;;;;;;;0.60;0.50;;;25.90;99.90;;;;;;5098319;28;20028;-64
2021/08/15 12:06:22;;;;;;;0.70;0.40;;;26.80;99.90;;;;;;5097955;28;20028;-65
2021/08/15 12:08:48;;;;;;;2.45;0.70;;;27.40;99.90;;;;;;5098295;28;20494;-64
2021/08/15 12:11:24;;;;;;;3.15;0.68;;;26.60;99.90;;;;;;5098163;28;20099;-64
2021/08/15 12:13:53;;;;;;;2.58;0.75;;;25.90;99.90;;;;;;5098406;28;20023;-64
2021/08/15 12:16:23;;;;;;;2.90;0.80;;;25.50;99.90;;;;;;5098053;28;20020;-64
2021/08/15 12:18:49;;;;;;;2.55;0.75;;;25.40;99.90;;;;;;5098280;28;20024;-65
2021/08/15 12:21:34;;;;;;;2.33;1.20;;;25.40;99.90;;;;;;5096768;28;20086;-65
2021/08/15 12:24:10;;;;;;;3.13;0.50;;;25.40;99.90;;;;;;5098114;28;20020;-64
2021/08/15 12:27:08;;;;;;;1.10;0.60;;;25.50;99.90;;;;;;5097736;28;20099;-65
2021/08/15 12:29:43;;;;;;;2.53;0.90;;;25.80;99.90;;;;;;5075742;28;20032;-65
2021/08/15 12:32:17;;;;;;;2.78;0.70;;;25.60;99.90;;;;;;5097745;28;20028;-64
2021/08/15 12:34:52;;;;;;;2.78;0.65;;;24.80;99.90;;;;;;5097418;28;20031;-64
2021/08/15 12:37:20;;;;;;;3.90;0.93;;;24.90;99.90;;;;;;5097492;28;20062;-65
2021/08/15 12:39:58;;;;;;;3.85;0.82;;;25.20;99.90;;;;;;5097672;28;20038;-65
2021/08/15 12:42:24;;;;;;;2.90;1.02;;;26.60;99.90;;;;;;5097567;28;20031;-65
2021/08/15 12:44:53;;;;;;;2.25;0.57;;;28.10;99.90;;;;;;5097674;28;20024;-64
2021/08/15 12:47:34;;;;;;;2.72;0.85;;;29.20;99.90;;;;;;5097449;28;20553;-65
2021/08/15 12:50:12;;;;;;;2.03;0.60;;;29.80;99.90;;;;;;5097570;28;20020;-65
2021/08/15 12:52:59;;;;;;;2.10;0.70;;;29.40;99.90;;;;;;5097153;28;20072;-65
2021/08/15 12:55:32;;;;;;;3.17;0.98;;;28.50;99.00;;;;;;5097107;28;20024;-65
2021/08/15 12:58:05;;;;;;;2.95;0.95;;;27.90;99.80;;;;;;5097270;28;20112;-65
2021/08/15 13:00:34;;;;;;;8.68;1.90;;;27.20;99.90;;;;;;5097274;28;20049;-64
2021/08/15 13:03:01;;;;;;;3.50;1.13;;;27.00;99.90;;;;;;5097400;28;20023;-65
2021/08/15 13:05:30;;;;;;;4.72;1.35;;;26.90;99.90;;;;;;5096770;28;20493;-65